Time;durP1;ratioP1;P1;durP2;ratioP2;P2;SDS_P1;SDS_P2;PMS_P1;PMS_P2;Temp;Humidity;BMP_temperature;BMP_pressure;BME280_temperature;BME280_humidity;BME280_pressure;Samples;Min_cycle;Max_cycle;Signal;HPM_P1;HPM_P2
2022/01/04 00:02:08;;;;;;;7.97;3.15;;;;;;;8.66;85.88;100054.25;4878375;29;20049;-72
2022/01/04 00:04:33;;;;;;;6.72;2.83;;;;;;;8.68;85.17;100051.31;4880131;29;20040;-72
2022/01/04 00:06:58;;;;;;;7.40;2.80;;;;;;;8.68;85.87;100051.31;4880731;29;20415;-72
2022/01/04 00:09:24;;;;;;;4.57;2.60;;;;;;;8.66;85.56;100043.47;4880425;29;20037;-72
2022/01/04 00:14:18;;;;;;;5.68;2.72;;;;;;;8.62;85.77;100039.59;4880878;29;20378;-72
2022/01/04 00:16:44;;;;;;;7.95;2.70;;;;;;;8.69;85.39;100042.19;4880357;29;20029;-72
2022/01/04 00:19:09;;;;;;;6.70;2.85;;;;;;;8.66;86.08;100034.56;4877548;29;20042;-72
2022/01/04 00:21:35;;;;;;;4.60;2.55;;;;;;;8.66;85.61;100027.28;4879940;29;20120;-72
2022/01/04 00:24:00;;;;;;;5.90;2.60;;;;;;;8.69;85.34;100026.00;4880632;29;20112;-72
2022/01/04 00:26:27;;;;;;;4.78;2.60;;;;;;;8.61;86.65;100018.28;4879802;29;20036;-72
2022/01/04 00:28:52;;;;;;;4.75;2.50;;;;;;;8.64;85.79;100015.09;4878867;29;20462;-73
2022/01/04 00:31:18;;;;;;;4.13;2.33;;;;;;;8.63;85.98;100006.16;4879877;29;20047;-72
2022/01/04 00:33:43;;;;;;;4.57;2.60;;;;;;;8.61;86.00;99992.09;4855498;29;20034;-72
2022/01/04 00:36:08;;;;;;;5.75;2.72;;;;;;;8.58;86.21;99983.69;4876562;29;20035;-71
2022/01/04 00:38:33;;;;;;;5.60;2.67;;;;;;;8.56;85.54;99980.38;4879616;29;20033;-72
2022/01/04 00:40:59;;;;;;;7.03;2.60;;;;;;;8.56;86.46;99977.69;4879641;29;20033;-73
2022/01/04 00:43:24;;;;;;;5.47;2.47;;;;;;;8.55;86.63;99965.28;4880057;29;20032;-72
2022/01/04 00:45:51;;;;;;;6.80;2.90;;;;;;;8.57;86.05;99966.66;4878614;29;20097;-72
2022/01/04 00:50:42;;;;;;;6.13;2.78;;;;;;;8.56;86.12;99962.34;4879957;29;20112;-71
2022/01/04 00:53:07;;;;;;;6.78;3.15;;;;;;;8.54;86.69;99959.03;4879970;29;20056;-72
2022/01/04 00:55:33;;;;;;;6.43;2.70;;;;;;;8.55;86.57;99970.66;4879868;29;20033;-72
2022/01/04 00:57:59;;;;;;;6.75;3.05;;;;;;;8.51;85.87;99954.09;4879531;29;20037;-73
2022/01/04 01:00:25;;;;;;;6.22;3.10;;;;;;;8.49;85.96;99950.84;4878523;29;20395;-72
2022/01/04 01:02:51;;;;;;;4.65;3.03;;;;;;;8.46;86.94;99930.53;4878162;29;20035;-72
2022/01/04 01:05:17;;;;;;;5.53;3.35;;;;;;;8.52;86.09;99929.59;4867959;29;20033;-73
2022/01/04 01:07:43;;;;;;;6.03;3.25;;;;;;;8.53;86.05;99941.22;4871916;29;20033;-73
2022/01/04 01:12:40;;;;;;;8.63;3.13;;;;;;;8.45;86.62;99939.69;4879153;29;20048;-72
2022/01/04 01:15:06;;;;;;;8.40;3.38;;;;;;;8.43;86.53;99943.66;4879724;29;20082;-72
2022/01/04 01:17:32;;;;;;;6.63;3.42;;;;;;;8.46;85.95;99945.91;4879317;29;20033;-72
2022/01/04 01:19:58;;;;;;;6.47;3.50;;;;;;;8.37;86.09;99936.50;4879144;29;20044;-71
2022/01/04 01:22:23;;;;;;;7.75;3.53;;;;;;;8.39;87.01;99934.38;4879162;29;20055;-71
2022/01/04 01:24:49;;;;;;;6.10;3.08;;;;;;;8.38;86.69;99932.72;4879139;29;20116;-72
2022/01/04 01:27:14;;;;;;;7.32;3.08;;;;;;;8.40;86.14;99938.72;4879174;29;20165;-72
2022/01/04 01:29:40;;;;;;;7.68;3.17;;;;;;;8.37;86.72;99918.44;4877676;29;20374;-72
2022/01/04 01:32:05;;;;;;;5.95;3.10;;;;;;;8.38;86.06;99920.09;4879004;29;20097;-72
2022/01/04 01:34:31;;;;;;;7.57;3.58;;;;;;;8.36;86.12;99918.66;4879047;29;20029;-72
2022/01/04 01:36:56;;;;;;;9.00;3.50;;;;;;;8.37;86.52;99910.34;4877950;29;20033;-72
2022/01/04 01:39:21;;;;;;;6.05;3.10;;;;;;;8.33;86.89;99910.00;4878445;29;20033;-72
2022/01/04 01:41:46;;;;;;;8.10;3.70;;;;;;;8.32;86.96;99904.84;4878647;29;20037;-72
2022/01/04 01:44:12;;;;;;;8.57;3.72;;;;;;;8.33;86.39;99893.84;4879128;29;20047;-72
2022/01/04 01:46:37;;;;;;;10.57;4.00;;;;;;;8.34;86.72;99890.06;4878683;29;20668;-71
2022/01/04 01:49:02;;;;;;;8.40;4.15;;;;;;;8.30;86.51;99894.31;4879059;29;20124;-72
2022/01/04 01:51:30;;;;;;;7.68;3.75;;;;;;;8.30;86.80;99893.47;4879045;29;20109;-73
2022/01/04 01:53:55;;;;;;;7.95;3.92;;;;;;;8.31;86.26;99889.72;4877678;29;20029;-72
2022/01/04 01:56:21;;;;;;;8.63;3.78;;;;;;;8.30;86.27;99894.31;4878776;29;20040;-72
2022/01/04 01:58:46;;;;;;;7.30;3.88;;;;;;;8.30;86.62;99893.47;4878070;29;20071;-72
2022/01/04 02:01:11;;;;;;;6.40;3.40;;;;;;;8.28;86.55;99896.38;4876600;29;20040;-72
2022/01/04 02:03:38;;;;;;;8.38;4.05;;;;;;;8.23;86.52;99885.50;4878800;29;20055;-72
2022/01/04 02:06:03;;;;;;;8.88;4.50;;;;;;;8.26;87.16;99887.72;4878457;29;20039;-72
2022/01/04 02:08:29;;;;;;;8.52;3.92;;;;;;;8.23;86.74;99874.72;4878576;29;20036;-72
2022/01/04 02:10:58;;;;;;;7.97;4.43;;;;;;;8.22;86.89;99873.06;4862093;29;20041;-72
2022/01/04 02:13:24;;;;;;;7.18;3.90;;;;;;;8.18;86.36;99863.81;4878396;29;20040;-72
2022/01/04 02:15:50;;;;;;;10.05;4.28;;;;;;;8.20;86.39;99864.41;4878279;29;20041;-72
2022/01/04 02:18:15;;;;;;;6.35;3.90;;;;;;;8.19;86.65;99854.66;4878637;29;20533;-72
2022/01/04 02:20:40;;;;;;;8.45;3.95;;;;;;;8.18;86.86;99850.31;4863063;29;20431;-72
2022/01/04 02:23:06;;;;;;;7.53;4.47;;;;;;;8.18;86.78;99853.03;4864459;29;20044;-72
2022/01/04 02:25:31;;;;;;;11.07;4.60;;;;;;;8.16;86.55;99844.34;4861804;29;20045;-72
2022/01/04 02:27:57;;;;;;;10.63;4.15;;;;;;;8.14;86.51;99838.41;4878210;29;20032;-72
2022/01/04 02:30:22;;;;;;;10.20;4.30;;;;;;;8.14;86.68;99839.19;4878413;29;20033;-71
2022/01/04 02:32:48;;;;;;;10.57;4.40;;;;;;;8.12;86.73;99845.88;4878303;29;20089;-72
2022/01/04 02:35:17;;;;;;;10.38;4.95;;;;;;;8.09;86.75;99838.25;4879242;29;20124;-72
2022/01/04 02:37:42;;;;;;;8.05;4.13;;;;;;;8.08;86.79;99834.75;4881562;29;20048;-72
2022/01/04 02:40:08;;;;;;;8.38;4.60;;;;;;;8.11;85.89;99838.88;4882240;29;20045;-72
2022/01/04 02:42:33;;;;;;;10.50;4.70;;;;;;;8.07;86.45;99835.78;4881949;29;20043;-72
2022/01/04 02:45:00;;;;;;;9.48;4.63;;;;;;;8.11;86.37;99831.59;4880668;29;20033;-71
2022/01/04 02:47:28;;;;;;;8.85;4.38;;;;;;;8.10;87.33;99823.75;4882210;29;20029;-72
2022/01/04 02:49:53;;;;;;;11.10;4.93;;;;;;;8.08;86.73;99820.47;4881954;29;20155;-72
2022/01/04 02:52:18;;;;;;;10.95;4.93;;;;;;;8.06;86.68;99819.88;4882163;29;20148;-72
2022/01/04 02:54:44;;;;;;;9.32;4.80;;;;;;;8.08;86.76;99815.09;4881380;29;20025;-72
2022/01/04 02:57:09;;;;;;;9.80;4.47;;;;;;;8.01;86.40;99803.59;4881887;29;20389;-71
2022/01/04 02:59:34;;;;;;;11.75;4.90;;;;;;;8.01;86.15;99798.19;4881497;29;20123;-72
2022/01/04 03:02:00;;;;;;;11.27;4.50;;;;;;;8.02;86.41;99805.22;4879119;29;20473;-72
2022/01/04 03:04:25;;;;;;;8.93;4.35;;;;;;;7.98;86.59;99794.91;4881719;29;20202;-72
2022/01/04 03:06:51;;;;;;;10.75;4.18;;;;;;;7.98;86.24;99797.59;4881623;29;20108;-72
2022/01/04 03:09:16;;;;;;;11.55;4.35;;;;;;;7.96;86.43;99796.22;4881128;29;20031;-72
2022/01/04 03:11:41;;;;;;;9.25;4.25;;;;;;;7.95;86.04;99781.91;4881709;29;20082;-72
2022/01/04 03:14:06;;;;;;;7.15;4.13;;;;;;;7.95;86.84;99781.09;4881654;29;20029;-72
2022/01/04 03:16:32;;;;;;;7.88;3.97;;;;;;;7.99;85.98;99780.38;4881839;29;20040;-72
2022/01/04 03:19:06;;;;;;;10.57;4.03;;;;;;;7.95;86.69;99767.63;4881118;29;20036;-71
2022/01/04 03:21:39;;;;;;;6.35;3.72;;;;;;;7.98;86.44;99764.47;4881547;29;20115;-72
2022/01/04 03:24:07;;;;;;;8.45;3.85;;;;;;;7.92;85.99;99749.25;4881346;29;20076;-72
2022/01/04 03:26:32;;;;;;;7.07;3.55;;;;;;;7.99;86.22;99752.63;4881683;29;20478;-72
2022/01/04 03:28:59;;;;;;;8.82;3.78;;;;;;;7.98;86.40;99751.00;4880953;29;20056;-71
2022/01/04 03:31:25;;;;;;;5.55;3.63;;;;;;;7.93;86.80;99738.22;4881315;29;20037;-71
2022/01/04 03:33:51;;;;;;;8.13;3.80;;;;;;;7.95;86.08;99732.59;4880249;29;20033;-72
2022/01/04 03:36:20;;;;;;;10.35;4.25;;;;;;;7.95;86.60;99727.22;4864688;29;20157;-72
2022/01/04 03:38:47;;;;;;;9.68;3.63;;;;;;;7.95;86.82;99722.63;4865954;29;20397;-72
2022/01/04 03:41:12;;;;;;;12.02;3.97;;;;;;;7.98;86.79;99722.16;4881047;29;20044;-72
2022/01/04 03:43:37;;;;;;;8.75;3.97;;;;;;;7.98;85.96;99711.38;4880830;29;20033;-72
2022/01/04 03:46:04;;;;;;;8.93;4.00;;;;;;;7.97;86.75;99699.00;4881027;29;20433;-72
2022/01/04 03:48:30;;;;;;;8.65;4.22;;;;;;;7.97;86.91;99699.00;4881196;29;20033;-72
2022/01/04 03:50:55;;;;;;;8.15;4.60;;;;;;;7.99;86.94;99688.78;4881225;29;20029;-72
2022/01/04 03:53:20;;;;;;;10.60;4.53;;;;;;;7.96;86.74;99683.06;4880581;29;20519;-72
2022/01/04 03:55:46;;;;;;;7.03;3.92;;;;;;;7.97;86.55;99677.44;4880995;29;20168;-72
2022/01/04 03:58:11;;;;;;;8.98;4.70;;;;;;;7.92;86.79;99676.50;4880402;29;20055;-72
2022/01/04 04:00:36;;;;;;;9.18;4.32;;;;;;;7.91;86.82;99669.47;4870939;29;20464;-72
2022/01/04 04:03:01;;;;;;;11.18;4.50;;;;;;;7.91;86.60;99675.69;4880357;29;20092;-72
2022/01/04 04:05:27;;;;;;;8.77;4.70;;;;;;;7.89;86.46;99661.63;4880816;29;20040;-72
2022/01/04 04:07:52;;;;;;;11.52;4.80;;;;;;;7.89;87.01;99660.81;4880648;29;20469;-72
2022/01/04 04:10:17;;;;;;;9.77;4.90;;;;;;;7.91;87.51;99653.31;4880450;29;20041;-71
2022/01/04 04:12:42;;;;;;;10.27;5.28;;;;;;;7.91;87.53;99664.94;4880066;29;20033;-71
2022/01/04 04:15:09;;;;;;;10.63;5.43;;;;;;;7.92;87.37;99652.25;4879432;29;20163;-73
2022/01/04 04:17:35;;;;;;;11.02;5.65;;;;;;;7.92;87.00;99645.00;4880499;29;20043;-72
2022/01/04 04:20:01;;;;;;;12.48;5.90;;;;;;;7.89;87.07;99645.47;4879664;29;20112;-72
2022/01/04 04:22:27;;;;;;;9.50;5.50;;;;;;;7.85;87.14;99638.09;4880196;29;20051;-72
2022/01/04 04:24:52;;;;;;;10.85;5.63;;;;;;;7.88;86.90;99634.94;4877686;29;20033;-72
2022/01/04 04:27:17;;;;;;;9.88;5.40;;;;;;;7.86;87.57;99635.16;4862353;29;20465;-72
2022/01/04 04:29:42;;;;;;;9.25;5.57;;;;;;;7.90;87.28;99628.25;4876671;29;20032;-71
2022/01/04 04:32:08;;;;;;;13.20;5.60;;;;;;;7.88;88.08;99633.06;4879117;29;20041;-72
2022/01/04 04:34:34;;;;;;;9.77;5.40;;;;;;;7.89;87.13;99632.00;4880440;29;20037;-72
2022/01/04 04:36:59;;;;;;;11.35;5.50;;;;;;;7.90;86.67;99630.94;4879730;29;20094;-72
2022/01/04 04:39:25;;;;;;;10.32;5.50;;;;;;;7.85;87.23;99628.16;4880051;29;20033;-73
2022/01/04 04:41:50;;;;;;;10.48;5.55;;;;;;;7.88;87.19;99633.06;4880243;29;20041;-72
2022/01/04 04:44:16;;;;;;;9.15;5.40;;;;;;;7.91;87.17;99619.13;4880148;29;20036;-72
2022/01/04 04:46:41;;;;;;;9.38;5.30;;;;;;;7.88;87.37;99621.47;4880021;29;20029;-72
2022/01/04 04:49:07;;;;;;;12.52;6.30;;;;;;;7.84;87.42;99615.75;4880020;29;20112;-71
2022/01/04 04:51:33;;;;;;;11.02;6.25;;;;;;;7.89;87.41;99626.63;4878157;29;20120;-72
2022/01/04 04:53:58;;;;;;;11.63;5.75;;;;;;;7.87;87.17;99626.03;4879515;29;20041;-71
2022/01/04 04:56:23;;;;;;;10.90;6.13;;;;;;;7.90;86.65;99630.94;4880392;29;20492;-72
2022/01/04 04:58:48;;;;;;;11.25;6.65;;;;;;;7.88;87.11;99627.69;4878390;29;20033;-72
2022/01/04 05:01:13;;;;;;;15.93;6.60;;;;;;;7.86;86.97;99629.78;4877567;29;20037;-72
2022/01/04 05:03:39;;;;;;;13.63;6.13;;;;;;;7.85;87.51;99622.78;4879114;29;20040;-72
2022/01/04 05:06:04;;;;;;;14.05;6.75;;;;;;;7.82;87.05;99623.25;4862465;29;20088;-72
2022/01/04 05:08:29;;;;;;;12.93;6.65;;;;;;;7.84;87.39;99609.53;4879606;29;20065;-72
2022/01/04 05:10:55;;;;;;;11.95;7.00;;;;;;;7.78;88.26;99609.41;4879370;29;20033;-72
2022/01/04 05:13:20;;;;;;;14.15;7.07;;;;;;;7.83;87.17;99618.69;4871029;29;20049;-72
2022/01/04 05:15:45;;;;;;;13.95;7.25;;;;;;;7.83;87.07;99613.28;4879515;29;20112;-71
2022/01/04 05:18:11;;;;;;;12.65;7.05;;;;;;;7.84;87.63;99604.16;4877141;29;20449;-72
2022/01/04 05:20:36;;;;;;;12.98;7.10;;;;;;;7.82;87.54;99604.41;4862888;29;20036;-72
2022/01/04 05:23:01;;;;;;;11.88;6.72;;;;;;;7.83;87.52;99606.00;4879050;29;20040;-72
2022/01/04 05:25:26;;;;;;;12.13;6.90;;;;;;;7.82;86.85;99585.53;4877957;29;20498;-72
2022/01/04 05:27:52;;;;;;;11.20;7.30;;;;;;;7.83;87.45;99591.75;4879408;29;20032;-71
2022/01/04 05:30:17;;;;;;;13.70;6.93;;;;;;;7.76;88.06;99594.56;4878987;29;20049;-72
2022/01/04 05:32:42;;;;;;;12.15;7.00;;;;;;;7.79;88.36;99586.03;4863137;29;20034;-72
2022/01/04 05:35:08;;;;;;;12.15;7.40;;;;;;;7.76;88.47;99586.47;4877999;29;20455;-72
2022/01/04 05:37:33;;;;;;;12.35;7.40;;;;;;;7.77;88.68;99583.53;4878641;29;20043;-72
2022/01/04 05:39:58;;;;;;;13.50;7.18;;;;;;;7.74;88.94;99569.75;4878381;29;20369;-72
2022/01/04 05:42:24;;;;;;;12.68;7.65;;;;;;;7.69;89.49;99554.31;4879058;29;20033;-72
2022/01/04 05:44:49;;;;;;;10.50;7.10;;;;;;;7.69;89.17;99564.25;4878628;29;20524;-72
2022/01/04 05:47:14;;;;;;;13.70;7.10;;;;;;;7.69;89.58;99562.38;4879023;29;20029;-72
2022/01/04 05:49:40;;;;;;;12.05;7.40;;;;;;;7.69;89.46;99564.25;4879055;29;20548;-72
2022/01/04 05:52:05;;;;;;;12.88;6.80;;;;;;;7.67;89.83;99555.59;4875240;29;20057;-72
2022/01/04 05:54:32;;;;;;;11.50;6.60;;;;;;;7.63;89.81;99556.06;4868401;29;20041;-72
2022/01/04 05:56:57;;;;;;;12.80;7.13;;;;;;;7.67;89.79;99560.97;4878528;29;20041;-72
2022/01/04 05:59:22;;;;;;;9.35;6.80;;;;;;;7.64;90.11;99562.28;4878739;29;20037;-72
2022/01/04 06:01:47;;;;;;;10.93;7.43;;;;;;;7.65;89.32;99557.72;4876097;29;20065;-72
2022/01/04 06:04:13;;;;;;;10.48;7.10;;;;;;;7.67;89.43;99550.19;4878986;29;20029;-72
2022/01/04 06:06:40;;;;;;;10.43;7.57;;;;;;;7.66;89.99;99553.97;4878885;29;20447;-72
2022/01/04 06:09:07;;;;;;;11.25;7.32;;;;;;;7.62;90.09;99549.06;4878692;29;20036;-72
2022/01/04 06:16:50;;;;;;;11.15;7.53;;;;;;;7.72;90.18;99544.94;4878625;29;20511;-73
2022/01/04 06:19:16;;;;;;;11.85;8.15;;;;;;;7.74;90.20;99550.88;4878220;29;20037;-71
2022/01/04 06:21:41;;;;;;;12.10;8.02;;;;;;;7.75;89.77;99541.78;4878548;29;20488;-71
2022/01/04 06:24:06;;;;;;;12.70;7.93;;;;;;;7.75;89.02;99539.88;4878611;29;20029;-71
2022/01/04 06:26:32;;;;;;;11.73;7.95;;;;;;;7.71;89.99;99535.22;4878620;29;20029;-71
2022/01/04 06:28:57;;;;;;;13.05;7.93;;;;;;;7.68;89.52;99533.00;4878200;29;20048;-71
2022/01/04 06:31:25;;;;;;;12.20;8.23;;;;;;;7.67;90.15;99536.75;4878542;29;20033;-71
2022/01/04 06:33:50;;;;;;;12.50;8.20;;;;;;;7.66;89.61;99532.44;4878565;29;20044;-71
2022/01/04 06:36:16;;;;;;;12.40;8.32;;;;;;;7.63;90.35;99539.09;4878007;29;20033;-71
2022/01/04 06:38:41;;;;;;;13.13;9.02;;;;;;;7.60;89.92;99540.38;4871559;29;20485;-71
2022/01/04 06:41:06;;;;;;;9.88;8.02;;;;;;;7.65;90.37;99525.41;4878278;29;20072;-72
2022/01/04 06:43:32;;;;;;;10.52;8.65;;;;;;;7.65;90.12;99539.66;4878380;29;20049;-72
2022/01/04 06:45:57;;;;;;;10.00;8.55;;;;;;;7.66;90.24;99544.00;4878483;29;20545;-71
2022/01/04 06:48:22;;;;;;;10.43;8.52;;;;;;;7.67;90.41;99540.28;4878422;29;20037;-71
2022/01/04 06:50:47;;;;;;;12.15;8.85;;;;;;;7.64;90.29;99519.22;4878187;29;20041;-71
2022/01/04 06:53:12;;;;;;;10.23;8.50;;;;;;;7.64;89.87;99519.22;4878365;29;20486;-71
2022/01/04 06:55:38;;;;;;;12.68;8.80;;;;;;;7.66;90.07;99508.19;4878224;29;20041;-72
2022/01/04 06:58:03;;;;;;;13.63;8.60;;;;;;;7.68;90.05;99519.53;4860894;29;20501;-73
2022/01/04 07:00:28;;;;;;;11.02;8.48;;;;;;;7.63;90.87;99502.22;4876833;29;20033;-73
2022/01/04 07:02:53;;;;;;;11.07;8.27;;;;;;;7.66;90.44;99509.00;4876461;29;20112;-71
2022/01/04 07:05:19;;;;;;;12.63;9.00;;;;;;;7.66;90.07;99510.88;4878268;29;20457;-72
2022/01/04 07:07:44;;;;;;;11.63;8.85;;;;;;;7.66;90.37;99510.88;4861611;29;20037;-72
2022/01/04 07:10:12;;;;;;;14.98;8.80;;;;;;;7.66;90.54;99500.13;4877697;29;20041;-72
2022/01/04 07:12:38;;;;;;;13.05;9.50;;;;;;;7.63;90.20;99487.94;4878236;29;20039;-72
2022/01/04 07:15:03;;;;;;;13.30;9.70;;;;;;;7.63;89.94;99486.06;4877992;29;20032;-73
2022/01/04 07:17:34;;;;;;;13.50;9.43;;;;;;;7.65;90.62;99487.69;4878104;29;20025;-73
2022/01/04 07:20:00;;;;;;;11.93;9.25;;;;;;;7.63;90.06;99491.44;4877804;29;20033;-75
2022/01/04 07:22:25;;;;;;;12.75;9.82;;;;;;;7.62;90.39;99489.81;4880525;29;20029;-75
2022/01/04 07:24:51;;;;;;;13.10;9.73;;;;;;;7.64;90.96;99494.97;4881260;29;20025;-77
2022/01/04 07:27:16;;;;;;;12.68;9.88;;;;;;;7.67;90.63;99483.72;4879933;29;20067;-73
2022/01/04 07:29:41;;;;;;;13.60;9.98;;;;;;;7.66;90.24;99478.59;4880920;29;20089;-73
2022/01/04 07:32:07;;;;;;;13.38;10.05;;;;;;;7.67;89.96;99480.19;4881222;29;20115;-73
2022/01/04 07:34:32;;;;;;;14.80;10.13;;;;;;;7.62;90.55;99457.53;4881604;29;20380;-72
2022/01/04 07:36:57;;;;;;;15.52;10.60;;;;;;;7.62;90.99;99462.06;4880846;29;20093;-72
2022/01/04 07:39:22;;;;;;;16.23;11.00;;;;;;;7.61;90.59;99455.88;4881024;29;20454;-72
2022/01/04 07:41:48;;;;;;;15.90;11.07;;;;;;;7.58;91.08;99439.41;4881260;29;20037;-72
2022/01/04 07:44:13;;;;;;;14.55;11.05;;;;;;;7.59;90.29;99452.63;4864337;29;20033;-72
2022/01/04 07:46:38;;;;;;;17.75;11.10;;;;;;;7.58;90.23;99453.66;4861344;29;20044;-73
2022/01/04 07:49:03;;;;;;;15.75;11.30;;;;;;;7.57;90.30;99448.53;4860911;29;20367;-73
2022/01/04 07:51:29;;;;;;;15.90;10.65;;;;;;;7.57;91.06;99459.28;4868931;29;20057;-72
2022/01/04 07:53:54;;;;;;;18.23;12.00;;;;;;;7.58;90.47;99467.13;4870963;29;20033;-73
2022/01/04 07:56:19;;;;;;;19.92;12.20;;;;;;;7.56;90.95;99469.25;4880694;29;20116;-74
2022/01/04 07:58:45;;;;;;;19.52;12.15;;;;;;;7.58;90.85;99472.50;4880578;29;20036;-75
2022/01/04 08:01:10;;;;;;;17.38;11.88;;;;;;;7.57;90.61;99486.22;4878156;29;20035;-73
2022/01/04 08:03:35;;;;;;;15.63;11.80;;;;;;;7.56;90.22;99474.63;4880844;29;20025;-72
2022/01/04 08:06:01;;;;;;;15.77;11.65;;;;;;;7.57;90.68;99468.16;4880260;29;20044;-73
2022/01/04 08:08:26;;;;;;;20.15;11.93;;;;;;;7.60;90.26;99472.28;4880941;29;20066;-73
2022/01/04 08:10:51;;;;;;;20.23;12.40;;;;;;;7.60;90.49;99469.56;4863926;29;20029;-72
2022/01/04 08:13:17;;;;;;;19.33;12.63;;;;;;;7.58;90.38;99459.06;4880467;29;20040;-73
2022/01/04 08:15:42;;;;;;;19.25;12.88;;;;;;;7.62;90.22;99468.28;4863768;29;20040;-73
2022/01/04 08:18:07;;;;;;;17.02;12.07;;;;;;;7.63;89.82;99474.47;4879654;29;20033;-74
2022/01/04 08:20:33;;;;;;;18.73;12.85;;;;;;;7.60;90.10;99475.78;4880252;29;20085;-76
2022/01/04 08:22:59;;;;;;;18.27;13.55;;;;;;;7.61;90.40;99477.41;4879857;29;20485;-73
2022/01/04 08:25:24;;;;;;;17.92;13.07;;;;;;;7.65;90.42;99479.63;4880530;29;20393;-75
2022/01/04 08:27:52;;;;;;;21.30;13.55;;;;;;;7.67;90.56;99474.81;4880327;29;20033;-76
2022/01/04 08:30:17;;;;;;;19.77;13.77;;;;;;;7.66;90.21;99474.00;4879959;29;20037;-71
2022/01/04 08:32:42;;;;;;;21.75;13.82;;;;;;;7.67;89.99;99480.19;4879494;29;20063;-73
2022/01/04 08:35:08;;;;;;;20.40;13.82;;;;;;;7.65;89.97;99479.63;4879763;29;20093;-74
2022/01/04 08:37:34;;;;;;;21.10;14.30;;;;;;;7.65;89.98;99483.13;4888186;29;20065;-72
2022/01/04 08:39:59;;;;;;;19.05;13.52;;;;;;;7.63;90.03;99477.97;4880186;29;20064;-73
2022/01/04 08:42:25;;;;;;;19.02;13.15;;;;;;;7.63;90.40;99494.13;4854306;29;20025;-72
2022/01/04 08:44:52;;;;;;;19.58;13.05;;;;;;;7.61;90.55;99504.34;4875046;29;20033;-74
2022/01/04 08:47:17;;;;;;;22.13;13.57;;;;;;;7.60;90.29;99513.47;4880082;29;20085;-72
2022/01/04 08:49:43;;;;;;;20.30;14.20;;;;;;;7.57;90.53;99503.16;4880206;29;20033;-74
2022/01/04 08:52:09;;;;;;;20.58;13.82;;;;;;;7.60;90.01;99507.28;4879979;29;20061;-75
2022/01/04 08:54:35;;;;;;;18.73;13.02;;;;;;;7.61;90.89;99517.00;4880237;29;20029;-73
2022/01/04 08:57:01;;;;;;;20.63;13.82;;;;;;;7.60;90.01;99518.84;4878833;29;20072;-74
2022/01/04 08:59:27;;;;;;;20.10;13.85;;;;;;;7.58;90.08;99515.59;4879739;29;20120;-73
2022/01/04 09:01:53;;;;;;;22.63;14.05;;;;;;;7.62;89.87;99516.75;4877682;29;20044;-73
2022/01/04 09:04:20;;;;;;;21.00;13.88;;;;;;;7.63;90.64;99506.78;4862771;29;20517;-72
2022/01/04 09:06:46;;;;;;;21.58;14.30;;;;;;;7.65;91.02;99501.97;4863198;29;20089;-73
2022/01/04 09:09:12;;;;;;;20.80;14.30;;;;;;;7.62;89.97;99484.44;4861293;29;20040;-73
2022/01/04 09:11:37;;;;;;;19.92;14.38;;;;;;;7.67;90.09;99490.97;4876447;29;20377;-74
2022/01/04 09:19:17;;;;;;;21.80;15.07;;;;;;;7.69;90.34;99478.91;4878864;29;20642;-80
2022/01/04 09:21:43;;;;;;;21.05;14.48;;;;;;;7.68;90.58;99485.34;4878403;29;20029;-78
2022/01/04 09:24:08;;;;;;;22.83;14.90;;;;;;;7.70;89.79;99487.78;4879713;29;20037;-80
2022/01/04 09:26:33;;;;;;;21.75;14.55;;;;;;;7.71;90.10;99492.94;4879915;29;20423;-85
2022/01/04 09:28:59;;;;;;;19.27;14.45;;;;;;;7.73;89.52;99506.16;4857312;29;20041;-74
2022/01/04 09:31:26;;;;;;;23.85;16.02;;;;;;;7.71;90.57;99516.38;4879153;29;20374;-76
2022/01/04 09:33:53;;;;;;;23.27;15.55;;;;;;;7.75;89.86;99525.59;4875889;29;20059;-74
2022/01/04 09:36:19;;;;;;;25.50;15.95;;;;;;;7.73;90.21;99519.63;4878361;29;20044;-74
2022/01/04 09:38:44;;;;;;;24.35;16.80;;;;;;;7.74;89.73;99516.69;4879286;29;20033;-73
2022/01/04 09:41:09;;;;;;;21.98;16.05;;;;;;;7.75;90.54;99515.66;4873050;29;20033;-74
2022/01/04 09:43:35;;;;;;;22.42;15.55;;;;;;;7.80;89.95;99517.63;4865114;29;20037;-73
2022/01/04 09:46:00;;;;;;;23.65;16.75;;;;;;;7.74;89.78;99508.63;4877723;29;20047;-73
2022/01/04 09:48:26;;;;;;;26.92;16.55;;;;;;;7.78;90.09;99508.97;4878410;29;20106;-72
2022/01/04 09:50:55;;;;;;;25.10;17.25;;;;;;;7.77;90.24;99510.81;4879453;29;20134;-73
2022/01/04 09:53:21;;;;;;;26.27;18.45;;;;;;;7.79;89.61;99510.63;4878272;29;20053;-77
2022/01/04 09:55:49;;;;;;;26.42;18.48;;;;;;;7.80;89.67;99513.06;4872333;29;20037;-74
2022/01/04 09:58:15;;;;;;;29.45;19.55;;;;;;;7.79;89.46;99499.84;4879208;29;20028;-72
2022/01/04 10:00:40;;;;;;;29.73;19.38;;;;;;;7.79;90.62;99494.47;4876065;29;20099;-72
2022/01/04 10:03:15;;;;;;;26.08;17.55;;;;;;;7.80;90.35;99507.69;4870392;29;20169;-72
2022/01/04 10:05:42;;;;;;;28.67;20.15;;;;;;;7.82;89.25;99510.13;4860434;29;20033;-74
2022/01/04 10:08:09;;;;;;;27.02;18.77;;;;;;;7.76;89.85;99490.38;4859791;29;20389;-78
2022/01/04 10:10:35;;;;;;;28.92;19.70;;;;;;;7.81;89.77;99500.41;4859434;29;20045;-77
2022/01/04 10:13:04;;;;;;;27.83;20.05;;;;;;;7.81;89.74;99497.72;4878847;29;20029;-78
2022/01/04 10:15:36;;;;;;;31.63;19.95;;;;;;;7.87;89.73;99491.38;4862245;29;20047;-77
2022/01/04 10:18:21;;;;;;;31.70;21.27;;;;;;;7.87;89.87;99477.91;4860858;29;20037;-78
2022/01/04 10:20:53;;;;;;;31.27;19.95;;;;;;;7.94;89.15;99472.34;4881067;29;20024;-76
2022/01/04 10:23:22;;;;;;;34.42;21.17;;;;;;;7.93;89.66;99473.44;4879697;29;20044;-77
2022/01/04 10:25:52;;;;;;;29.83;20.95;;;;;;;7.93;88.71;99471.56;4876634;29;20045;-78
2022/01/04 10:28:32;;;;;;;31.30;20.95;;;;;;;7.92;89.96;99480.69;4874428;29;20064;-77
2022/01/04 10:31:05;;;;;;;34.15;21.35;;;;;;;7.92;89.69;99477.19;4872329;29;20492;-76
2022/01/04 10:33:32;;;;;;;34.15;20.52;;;;;;;7.97;88.87;99479.94;4859912;29;20037;-76
2022/01/04 10:35:59;;;;;;;33.90;22.13;;;;;;;7.96;89.74;99478.34;4843453;29;20037;-76
2022/01/04 10:38:29;;;;;;;31.50;20.60;;;;;;;7.97;88.91;99470.00;4843021;29;20438;-75
2022/01/04 10:41:03;;;;;;;28.65;21.23;;;;;;;7.95;89.60;99469.41;4872695;29;20044;-79
2022/01/04 10:43:37;;;;;;;33.42;21.60;;;;;;;7.99;89.12;99472.47;4878387;29;20048;-79
2022/01/04 10:46:04;;;;;;;32.58;21.58;;;;;;;8.01;89.34;99472.22;4873571;29;20127;-76
2022/01/04 10:48:36;;;;;;;37.17;21.60;;;;;;;8.04;89.68;99477.13;4859934;29;20427;-77
2022/01/04 10:51:08;;;;;;;35.10;21.92;;;;;;;8.04;88.90;99475.25;4859926;29;20041;-79
2022/01/04 10:53:43;;;;;;;32.65;22.00;;;;;;;8.04;90.01;99466.34;4843361;29;20053;-81
2022/01/04 10:56:17;;;;;;;29.98;21.00;;;;;;;8.06;89.03;99466.91;4860608;29;20068;-78
2022/01/04 10:58:51;;;;;;;35.63;22.13;;;;;;;8.09;89.44;99474.50;4846850;29;20465;-73
2022/01/04 11:01:23;;;;;;;30.35;21.85;;;;;;;8.09;88.98;99471.81;4861079;29;20057;-73
2022/01/04 11:03:54;;;;;;;32.85;21.60;;;;;;;8.08;89.41;99462.94;4863486;29;20048;-73
2022/01/04 11:06:26;;;;;;;33.42;22.40;;;;;;;8.13;89.19;99467.59;4862953;29;20481;-75
2022/01/04 11:08:52;;;;;;;34.22;22.48;;;;;;;8.12;88.93;99456.00;4863600;29;20025;-74
2022/01/04 11:11:17;;;;;;;35.97;22.38;;;;;;;8.12;89.54;99450.63;4862701;29;20389;-75
2022/01/04 11:13:43;;;;;;;30.77;21.75;;;;;;;8.16;88.96;99453.63;4846274;29;20379;-74
2022/01/04 11:16:08;;;;;;;34.90;22.52;;;;;;;8.16;88.60;99442.84;4863121;29;20037;-77
2022/01/04 11:18:36;;;;;;;30.38;21.75;;;;;;;8.18;88.79;99446.09;4864015;29;20040;-74
2022/01/04 11:21:02;;;;;;;36.53;22.85;;;;;;;8.18;89.29;99454.19;4881641;29;20043;-75
2022/01/04 11:23:31;;;;;;;34.50;22.65;;;;;;;8.20;88.54;99451.25;4877778;29;20103;-80
2022/01/04 11:25:58;;;;;;;34.80;23.38;;;;;;;8.22;89.04;99463.44;4873728;29;20120;-76
2022/01/04 11:28:24;;;;;;;32.60;22.45;;;;;;;8.23;88.57;99462.38;4864423;29;20041;-75
2022/01/04 11:31:19;;;;;;;33.47;22.85;;;;;;;8.24;89.07;99464.00;4881176;29;20033;-75
2022/01/04 11:34:29;;;;;;;32.92;22.15;;;;;;;8.26;89.08;99469.97;4862994;29;20482;-75
2022/01/04 11:36:54;;;;;;;34.05;22.60;;;;;;;8.26;88.28;99477.25;4862537;29;20037;-74
2022/01/04 11:39:36;;;;;;;34.35;22.55;;;;;;;8.22;88.76;99498.47;4856857;29;20123;-75
2022/01/04 11:42:06;;;;;;;35.42;23.73;;;;;;;8.18;89.63;99508.09;4881166;29;20043;-75
2022/01/04 11:44:32;;;;;;;15.10;8.38;;;;;;;7.96;84.42;99530.31;4881672;29;20112;-74
2022/01/04 11:46:59;;;;;;;5.88;3.00;;;;;;;7.68;83.69;99524.91;4879601;29;20132;-75